Time;durP1;ratioP1;P1;durP2;ratioP2;P2;SDS_P1;SDS_P2;PMS_P1;PMS_P2;Temp;Humidity;BMP_temperature;BMP_pressure;BME280_temperature;BME280_humidity;BME280_pressure;Samples;Min_cycle;Max_cycle;Signal;HPM_P1;HPM_P2
2024/03/09 00:03:38;;;;;;;147.80;51.73;;;;;;;1.93;100.00;100958.27;4971256;57;1142731;-76
2024/03/09 00:08:44;;;;;;;115.23;43.13;;;;;;;1.94;100.00;100953.45;5024203;57;1142776;-80
2024/03/09 00:13:50;;;;;;;83.23;36.70;;;;;;;1.85;100.00;100948.55;5016188;56;1142806;-74
2024/03/09 00:18:57;;;;;;;69.83;32.93;;;;;;;1.74;100.00;100939.80;5022376;56;1140514;-77
2024/03/09 00:24:04;;;;;;;86.33;36.47;;;;;;;1.68;100.00;100937.39;5039711;56;1140730;-74
2024/03/09 00:29:09;;;;;;;79.73;33.53;;;;;;;1.70;100.00;100933.43;5024950;56;1140587;-71
2024/03/09 00:34:15;;;;;;;72.27;31.70;;;;;;;1.66;100.00;100925.34;5024748;56;1140598;-76
2024/03/09 00:39:20;;;;;;;68.20;32.95;;;;;;;1.62;100.00;100927.64;5025574;56;1140754;-72
2024/03/09 00:44:26;;;;;;;62.23;27.48;;;;;;;1.52;100.00;100924.95;5045032;56;1140392;-79
2024/03/09 00:49:31;;;;;;;68.37;29.53;;;;;;;1.37;100.00;100918.51;5025782;56;1141027;-79
2024/03/09 00:54:37;;;;;;;68.10;30.53;;;;;;;1.27;100.00;100911.87;4991338;57;1141213;-71
2024/03/09 00:59:43;;;;;;;71.47;32.87;;;;;;;1.24;100.00;100905.01;5038906;57;1140604;-71
2024/03/09 01:04:50;;;;;;;64.27;28.93;;;;;;;1.28;100.00;100900.55;5021221;56;1140707;-74
2024/03/09 01:09:55;;;;;;;74.60;30.10;;;;;;;1.22;100.00;100895.09;5020643;57;1140549;-75
2024/03/09 01:15:03;;;;;;;67.00;28.57;;;;;;;1.17;100.00;100899.62;5040237;57;1140797;-71
2024/03/09 01:20:10;;;;;;;62.70;27.67;;;;;;;1.12;100.00;100897.61;5022274;57;1140849;-77
2024/03/09 01:25:16;;;;;;;61.40;28.40;;;;;;;1.11;100.00;100893.30;4916670;57;1140974;-75
2024/03/09 01:30:21;;;;;;;63.48;27.62;;;;;;;1.14;100.00;100891.05;4910613;57;1141015;-76
2024/03/09 01:35:29;;;;;;;68.87;28.87;;;;;;;1.10;100.00;100885.53;4934854;57;1150428;-77
2024/03/09 01:40:35;;;;;;;70.70;32.03;;;;;;;1.09;100.00;100878.16;4908930;57;1140908;-78
2024/03/09 01:45:41;;;;;;;81.87;35.50;;;;;;;1.11;100.00;100876.81;4916225;57;1140906;-76
2024/03/09 01:50:48;;;;;;;77.07;33.70;;;;;;;1.20;100.00;100873.47;4927273;58;1140731;-77
2024/03/09 01:55:58;;;;;;;67.87;30.23;;;;;;;1.20;100.00;100873.47;4926677;58;1140941;-72
2024/03/09 02:01:15;;;;;;;71.03;31.83;;;;;;;1.23;100.00;100871.19;4911975;58;1140811;-76
2024/03/09 02:06:12;;;;;;;69.57;31.90;;;;;;;1.18;100.00;100867.45;4902292;58;1140835;-73
2024/03/09 02:11:18;;;;;;;75.37;32.90;;;;;;;1.15;100.00;100861.04;4833878;59;1141136;-72
2024/03/09 02:16:24;;;;;;;77.03;37.73;;;;;;;1.16;100.00;100852.77;4834850;59;1141972;-77
2024/03/09 02:21:31;;;;;;;76.33;33.85;;;;;;;1.11;100.00;100851.62;4853224;59;1140652;-72
2024/03/09 02:26:38;;;;;;;81.20;34.00;;;;;;;1.04;100.00;100848.38;4847488;58;1140625;-74
2024/03/09 02:31:44;;;;;;;76.27;32.87;;;;;;;0.96;100.00;100843.02;4915114;58;1140597;-73
2024/03/09 02:36:49;;;;;;;79.03;33.37;;;;;;;0.88;100.00;100845.03;4871354;59;1141044;-76
2024/03/09 02:41:58;;;;;;;69.83;33.20;;;;;;;0.83;100.00;100840.41;4930641;58;1140997;-76
2024/03/09 02:47:05;;;;;;;77.07;34.37;;;;;;;0.78;100.00;100833.19;4852493;59;1140670;-76
2024/03/09 02:52:10;;;;;;;85.50;34.77;;;;;;;0.76;100.00;100829.36;4994241;57;1140622;-69
2024/03/09 02:57:22;;;;;;;79.80;33.83;;;;;;;0.68;100.00;100836.10;5011312;57;1141199;-70
2024/03/09 03:07:46;;;;;;;76.40;33.50;;;;;;;0.68;100.00;100826.14;4957268;57;1140643;-72
2024/03/09 03:12:52;;;;;;;71.80;32.90;;;;;;;0.74;100.00;100823.80;5025674;57;1140901;-76
2024/03/09 03:17:58;;;;;;;68.67;32.93;;;;;;;0.76;100.00;100826.76;5011170;57;1140727;-77
2024/03/09 03:23:06;;;;;;;75.13;30.73;;;;;;;0.70;100.00;100824.34;4945516;57;1140859;-70
2024/03/09 03:28:12;;;;;;;73.80;32.57;;;;;;;0.62;100.00;100820.67;5011604;57;1140772;-72
2024/03/09 03:33:21;;;;;;;78.23;31.90;;;;;;;0.55;100.00;100820.48;5016501;57;1140921;-73
2024/03/09 03:38:25;;;;;;;78.20;31.93;;;;;;;0.49;100.00;100811.55;5019973;57;1140600;-75
2024/03/09 03:43:31;;;;;;;71.73;32.23;;;;;;;0.46;100.00;100822.05;4960577;56;1140757;-73
2024/03/09 03:48:37;;;;;;;67.63;31.30;;;;;;;0.41;100.00;100818.77;4948433;58;1140636;-77
2024/03/09 03:53:44;;;;;;;73.53;32.50;;;;;;;0.40;100.00;100807.09;4929333;58;1140502;-75
2024/03/09 03:58:51;;;;;;;79.47;32.73;;;;;;;0.35;100.00;100807.23;5020893;57;1140837;-76
2024/03/09 04:03:57;;;;;;;78.77;34.43;;;;;;;0.27;100.00;100802.73;5011154;57;1140637;-73
2024/03/09 04:09:03;;;;;;;74.57;34.33;;;;;;;0.22;100.00;100795.05;5020287;57;1140436;-74
2024/03/09 04:14:09;;;;;;;80.77;33.13;;;;;;;0.20;100.00;100791.65;5020641;57;1140792;-73
2024/03/09 04:19:15;;;;;;;79.33;34.03;;;;;;;0.22;100.00;100789.86;5019401;57;1140748;-75
2024/03/09 04:24:21;;;;;;;81.97;34.23;;;;;;;0.23;100.00;100794.61;4991322;57;1187812;-68
2024/03/09 04:29:26;;;;;;;80.20;35.33;;;;;;;0.24;100.00;100790.66;4992436;57;1140727;-73
2024/03/09 04:34:33;;;;;;;82.57;35.83;;;;;;;0.22;100.00;100784.66;5011053;57;1140497;-75
2024/03/09 04:39:43;;;;;;;86.47;36.77;;;;;;;0.29;100.00;100793.13;4991496;57;1140436;-73
2024/03/09 04:44:46;;;;;;;95.40;38.97;;;;;;;0.32;100.00;100783.91;5007746;57;1140629;-76
2024/03/09 04:49:52;;;;;;;87.50;37.10;;;;;;;0.35;100.00;100787.72;5033277;57;1140798;-73
2024/03/09 04:54:57;;;;;;;86.83;35.23;;;;;;;0.30;100.00;100778.78;4940032;58;1140759;-73
2024/03/09 05:00:04;;;;;;;90.70;35.63;;;;;;;0.13;100.00;100780.20;4939877;58;1140678;-70
2024/03/09 05:05:10;;;;;;;74.70;34.20;;;;;;;0.10;100.00;100772.48;4971116;57;1141106;-73
2024/03/09 05:10:19;;;;;;;91.63;37.30;;;;;;;0.07;100.00;100771.27;5020404;57;1140617;-71
2024/03/09 05:15:32;;;;;;;85.07;35.38;;;;;;;0.13;100.00;100778.90;4999583;57;1180025;-72
2024/03/09 05:20:38;;;;;;;72.30;33.57;;;;;;;-0.01;100.00;100756.77;4991359;57;1140838;-74
2024/03/09 05:25:44;;;;;;;73.50;34.27;;;;;;;-0.02;100.00;100760.27;5010032;58;1142965;-73
2024/03/09 05:30:49;;;;;;;80.87;35.83;;;;;;;-0.03;100.00;100754.66;4991560;57;1143044;-77
2024/03/09 05:35:55;;;;;;;80.40;37.40;;;;;;;0.00;100.00;100760.22;4991166;57;1158114;-68
2024/03/09 05:41:00;;;;;;;80.32;34.92;;;;;;;0.06;100.00;100761.31;5025749;57;1211111;-74
2024/03/09 05:46:07;;;;;;;76.87;35.53;;;;;;;0.04;100.00;100767.01;5018789;57;1246603;-76
2024/03/09 05:51:14;;;;;;;76.33;35.70;;;;;;;0.04;100.00;100767.45;5018492;57;1141542;-72
2024/03/09 05:56:20;;;;;;;76.53;35.35;;;;;;;0.09;100.00;100765.13;5022835;57;1242611;-73
2024/03/09 06:01:26;;;;;;;79.67;35.13;;;;;;;0.17;100.00;100760.52;4945280;57;1140866;-74
2024/03/09 06:06:32;;;;;;;82.53;37.13;;;;;;;0.33;100.00;100759.14;4940166;57;1239622;-72
2024/03/09 06:11:40;;;;;;;81.53;38.30;;;;;;;0.50;100.00;100762.52;5023629;56;1232295;-75
2024/03/09 06:16:45;;;;;;;87.53;38.43;;;;;;;0.66;100.00;100763.72;4958997;57;1201273;-78
2024/03/09 06:21:51;;;;;;;90.07;39.50;;;;;;;0.85;100.00;100757.91;4934326;57;1258417;-77
2024/03/09 06:26:58;;;;;;;82.50;36.43;;;;;;;1.05;100.00;100769.35;4931089;57;1248285;-74
2024/03/09 06:32:05;;;;;;;77.23;35.97;;;;;;;1.29;100.00;100764.17;4978749;57;1247719;-74
2024/03/09 06:37:11;;;;;;;88.77;41.70;;;;;;;1.46;100.00;100754.45;5009865;57;1251136;-75
2024/03/09 06:42:24;;;;;;;82.40;38.80;;;;;;;1.63;100.00;100749.02;5094571;56;1258806;-75
2024/03/09 06:47:25;;;;;;;79.25;38.13;;;;;;;1.78;100.00;100751.95;5011870;56;1255672;-71
2024/03/09 06:52:32;;;;;;;79.85;36.45;;;;;;;1.96;100.00;100744.74;4914495;57;1255547;-73
2024/03/09 06:57:38;;;;;;;77.60;36.23;;;;;;;2.16;100.00;100738.27;4914035;58;1247220;-74
2024/03/09 07:02:44;;;;;;;86.17;38.23;;;;;;;2.32;100.00;100739.36;4991650;56;1140479;-71
2024/03/09 07:07:49;;;;;;;86.50;37.80;;;;;;;2.45;100.00;100726.66;5016545;57;1140792;-74
2024/03/09 07:12:57;;;;;;;82.65;37.88;;;;;;;2.60;100.00;100722.60;4996889;57;1140850;-74
2024/03/09 07:18:03;;;;;;;81.23;35.57;;;;;;;2.79;100.00;100730.03;5019043;57;1140802;-76
2024/03/09 07:23:09;;;;;;;70.10;34.60;;;;;;;2.96;100.00;100731.93;5036939;57;1140682;-76
2024/03/09 07:28:15;;;;;;;76.57;34.80;;;;;;;3.16;100.00;100739.77;4982913;57;1140968;-73
2024/03/09 07:33:21;;;;;;;92.10;41.07;;;;;;;3.32;100.00;100735.57;5040340;55;1140959;-76
2024/03/09 07:38:27;;;;;;;73.17;33.27;;;;;;;3.56;100.00;100744.07;5023577;57;1141004;-74
2024/03/09 07:43:33;;;;;;;90.57;38.70;;;;;;;3.69;100.00;100728.20;4978057;58;1140700;-74
2024/03/09 07:48:40;;;;;;;73.40;36.47;;;;;;;3.89;100.00;100729.45;4958643;58;1140971;-74
2024/03/09 07:53:45;;;;;;;93.77;44.07;;;;;;;4.05;100.00;100717.80;5029005;56;1143181;-79
2024/03/09 07:58:51;;;;;;;98.23;46.20;;;;;;;4.14;100.00;100717.81;5059828;57;1140565;-79
2024/03/09 08:03:56;;;;;;;82.67;38.90;;;;;;;4.32;100.00;100712.16;5039229;57;1144628;-76
2024/03/09 08:09:02;;;;;;;76.13;36.40;;;;;;;4.48;100.00;100710.48;5039131;57;1140517;-76
2024/03/09 08:14:08;;;;;;;68.70;33.40;;;;;;;4.61;100.00;100714.19;5047304;57;1140734;-72
2024/03/09 08:19:13;;;;;;;69.40;34.53;;;;;;;4.81;100.00;100710.58;5088998;56;1140892;-74
2024/03/09 08:24:21;;;;;;;70.77;33.93;;;;;;;5.00;100.00;100705.25;5099221;55;1141067;-75
2024/03/09 08:29:26;;;;;;;77.65;38.00;;;;;;;5.21;100.00;100701.48;5087541;55;1140812;-72
2024/03/09 08:34:32;;;;;;;59.87;30.73;;;;;;;5.41;100.00;100709.62;5058861;56;1140805;-74
2024/03/09 08:39:39;;;;;;;50.45;27.35;;;;;;;5.62;100.00;100706.71;5014787;56;1141111;-76
2024/03/09 08:44:45;;;;;;;60.60;30.67;;;;;;;5.73;100.00;100696.94;5015438;56;1140792;-71
2024/03/09 08:49:50;;;;;;;54.33;29.93;;;;;;;5.88;100.00;100688.68;5052278;56;1140853;-73
2024/03/09 08:54:56;;;;;;;66.27;32.90;;;;;;;6.05;100.00;100676.81;5099088;55;1140770;-74
2024/03/09 09:00:05;;;;;;;58.80;29.30;;;;;;;6.15;100.00;100683.22;5090627;55;1140535;-77
2024/03/09 09:05:13;;;;;;;58.80;30.67;;;;;;;6.38;100.00;100675.36;5032861;55;1140817;-74
2024/03/09 09:10:21;;;;;;;56.47;30.00;;;;;;;6.59;100.00;100676.72;4929769;58;1140786;-74
2024/03/09 09:15:26;;;;;;;62.63;31.03;;;;;;;6.68;100.00;100667.47;4930217;58;1140549;-73
2024/03/09 09:20:31;;;;;;;59.42;30.45;;;;;;;6.79;100.00;100670.77;4930387;58;1140824;-73
2024/03/09 09:25:38;;;;;;;57.65;29.87;;;;;;;6.87;100.00;100661.50;4987995;58;1141231;-72
2024/03/09 09:30:44;;;;;;;57.10;30.70;;;;;;;7.00;100.00;100657.19;4953373;58;1140643;-74
2024/03/09 09:35:51;;;;;;;50.93;27.27;;;;;;;7.10;100.00;100657.47;5040102;56;1140625;-75
2024/03/09 09:40:59;;;;;;;56.80;27.33;;;;;;;7.14;100.00;100655.03;5065604;56;1140972;-69
2024/03/09 09:46:05;;;;;;;49.67;26.90;;;;;;;7.23;100.00;100650.98;5054925;56;1140632;-76
2024/03/09 09:51:14;;;;;;;54.97;26.97;;;;;;;7.32;100.00;100657.85;5052682;56;1140630;-79
2024/03/09 09:56:21;;;;;;;58.48;29.45;;;;;;;7.48;100.00;100653.80;4927628;56;1140747;-75
2024/03/09 10:01:27;;;;;;;59.97;29.50;;;;;;;7.62;100.00;100642.40;4972933;57;1144957;-79
2024/03/09 10:06:32;;;;;;;48.73;28.05;;;;;;;7.81;100.00;100646.00;5025780;56;1140684;-80
2024/03/09 10:11:38;;;;;;;66.97;27.30;;;;;;;7.92;100.00;100636.95;5052223;56;1141088;-78
2024/03/09 10:16:43;;;;;;;44.87;27.03;;;;;;;8.00;100.00;100638.14;5076161;56;1140864;-71
2024/03/09 10:21:52;;;;;;;56.33;30.23;;;;;;;8.08;100.00;100628.44;5058901;56;1140817;-79
2024/03/09 10:27:10;;;;;;;56.03;27.83;;;;;;;8.25;100.00;100620.73;5099001;55;1140898;-74
2024/03/09 10:32:15;;;;;;;52.20;28.63;;;;;;;8.36;100.00;100622.21;5115526;56;1140906;-76
2024/03/09 10:37:23;;;;;;;45.90;27.67;;;;;;;8.41;100.00;100610.87;5099789;56;1140869;-75
2024/03/09 10:42:32;;;;;;;51.70;26.48;;;;;;;8.43;99.66;100596.64;5095587;56;1140939;-72
2024/03/09 10:47:39;;;;;;;54.60;28.53;;;;;;;8.46;100.00;100597.77;5099140;57;1138687;-73
2024/03/09 10:52:50;;;;;;;56.87;28.60;;;;;;;8.50;100.00;100597.09;5063123;56;1140799;-79
2024/03/09 10:57:59;;;;;;;79.23;30.33;;;;;;;8.60;100.00;100590.23;5007758;57;1140766;-78
2024/03/09 11:03:08;;;;;;;47.30;26.60;;;;;;;8.68;100.00;100583.98;5015938;57;1140668;-76
2024/03/09 11:08:12;;;;;;;46.87;24.97;;;;;;;8.79;100.00;100576.64;5051305;57;1140780;-78
2024/03/09 11:13:19;;;;;;;36.73;22.13;;;;;;;8.86;100.00;100566.52;5023836;56;1140816;-78
2024/03/09 11:18:25;;;;;;;42.08;24.72;;;;;;;8.90;100.00;100559.58;5034155;56;1140981;-73
2024/03/09 11:23:36;;;;;;;51.48;27.67;;;;;;;9.03;100.00;100551.64;4993838;57;1140782;-74
2024/03/09 11:28:59;;;;;;;50.35;27.93;;;;;;;9.15;100.00;100529.69;5024259;55;1140710;-77
2024/03/09 11:34:21;;;;;;;51.67;25.87;;;;;;;9.27;98.32;100531.45;4995278;56;1140692;-78
2024/03/09 11:39:32;;;;;;;51.85;27.58;;;;;;;9.35;97.52;100519.84;4996975;57;1138947;-77
2024/03/09 11:44:39;;;;;;;49.65;26.17;;;;;;;9.50;97.41;100509.97;5015999;56;1138688;-75
2024/03/09 11:49:45;;;;;;;56.10;28.70;;;;;;;9.61;98.65;100503.44;5025128;55;1138843;-81
2024/03/09 11:54:50;;;;;;;54.10;32.13;;;;;;;9.70;99.74;100500.11;5034798;56;1140645;-74
2024/03/09 11:59:58;;;;;;;59.70;27.87;;;;;;;9.78;99.48;100497.72;5049341;57;1140598;-74
2024/03/09 12:05:05;;;;;;;51.73;30.60;;;;;;;9.85;99.78;100500.28;5044452;56;1141290;-72
2024/03/09 12:10:15;;;;;;;52.77;29.53;;;;;;;9.92;99.13;100490.11;5045125;56;1140541;-76
2024/03/09 12:15:21;;;;;;;47.53;27.55;;;;;;;10.09;99.20;100482.20;5062289;56;1140909;-75
2024/03/09 12:20:28;;;;;;;71.60;39.77;;;;;;;10.16;97.48;100482.95;5049335;57;1145630;-78
2024/03/09 12:25:34;;;;;;;53.93;31.33;;;;;;;10.17;98.25;100474.55;5038445;56;1142879;-81
2024/03/09 12:30:40;;;;;;;50.30;27.77;;;;;;;10.31;99.56;100472.20;5057063;57;1152121;-77
2024/03/09 12:35:46;;;;;;;60.43;34.27;;;;;;;10.43;98.30;100469.92;5056400;56;1142808;-73
2024/03/09 12:40:53;;;;;;;56.67;29.43;;;;;;;10.46;98.05;100454.66;5023247;56;1142985;-77
2024/03/09 12:46:01;;;;;;;69.57;47.80;;;;;;;10.52;99.53;100462.12;5011010;56;1142539;-75
2024/03/09 12:51:07;;;;;;;37.30;23.63;;;;;;;10.62;97.32;100447.69;5056834;56;1142877;-75
2024/03/09 12:56:12;;;;;;;43.50;25.27;;;;;;;10.70;95.92;100436.01;5032721;56;1142629;-80
2024/03/09 13:01:19;;;;;;;43.07;27.07;;;;;;;10.72;97.30;100418.70;5034506;56;1142701;-78
2024/03/09 13:06:24;;;;;;;42.63;24.53;;;;;;;10.81;96.78;100422.80;5036206;56;1142643;-80
2024/03/09 13:11:31;;;;;;;39.53;22.73;;;;;;;10.82;94.03;100430.25;5086894;57;1142941;-81
2024/03/09 13:16:43;;;;;;;41.13;22.05;;;;;;;10.82;96.58;100427.13;5078884;56;1142821;-78
2024/03/09 13:21:55;;;;;;;42.07;25.17;;;;;;;10.90;94.51;100418.07;5078632;56;1142857;-73
2024/03/09 13:27:01;;;;;;;43.07;27.23;;;;;;;10.97;93.22;100405.20;5099483;57;1142791;-81
2024/03/09 13:32:15;;;;;;;37.70;24.53;;;;;;;10.97;94.14;100403.03;5061630;56;1142901;-82
2024/03/09 13:37:14;;;;;;;40.57;23.03;;;;;;;11.00;93.42;100408.09;4996930;57;1142901;-78
2024/03/09 13:42:21;;;;;;;35.70;20.97;;;;;;;11.06;92.95;100395.17;5076794;56;1142868;-79
2024/03/09 13:47:27;;;;;;;31.52;20.10;;;;;;;11.16;92.73;100385.98;5064787;56;1148576;-80
2024/03/09 13:52:33;;;;;;;31.75;20.17;;;;;;;11.24;92.85;100376.95;4914160;57;1142998;-82
2024/03/09 13:57:40;;;;;;;44.27;24.20;;;;;;;11.27;90.74;100380.19;4910397;57;1143032;-70
2024/03/09 14:02:49;;;;;;;36.43;20.93;;;;;;;11.25;91.75;100379.95;4900003;58;1142838;-72
2024/03/09 14:07:57;;;;;;;32.73;17.70;;;;;;;11.25;91.17;100372.86;4928159;57;1142853;-76
2024/03/09 14:13:10;;;;;;;30.03;18.87;;;;;;;11.19;90.61;100368.54;4939845;57;1143266;-80
2024/03/09 14:18:16;;;;;;;28.43;18.43;;;;;;;11.18;90.77;100370.34;4957865;57;1142942;-76
2024/03/09 14:23:23;;;;;;;40.03;21.70;;;;;;;11.13;88.96;100360.64;4857900;58;1143540;-75
2024/03/09 14:28:28;;;;;;;37.73;21.97;;;;;;;11.08;90.40;100350.06;4862000;59;1142707;-77
2024/03/09 14:33:34;;;;;;;39.90;23.27;;;;;;;11.02;90.07;100343.94;4880790;58;1142981;-78
2024/03/09 14:38:40;;;;;;;33.63;21.48;;;;;;;10.89;88.80;100338.34;4927340;57;1142805;-72
2024/03/09 14:43:45;;;;;;;41.70;21.30;;;;;;;10.82;91.40;100341.14;4940448;57;1142908;-80
2024/03/09 14:48:54;;;;;;;59.98;31.70;;;;;;;10.79;91.26;100339.22;4959178;58;1143053;-74
2024/03/09 14:53:59;;;;;;;39.07;22.37;;;;;;;10.75;90.88;100332.48;5005121;57;1143355;-76
2024/03/09 14:59:07;;;;;;;37.40;22.33;;;;;;;10.73;90.52;100330.45;5015763;57;1142838;-71
2024/03/09 15:04:14;;;;;;;36.70;22.77;;;;;;;10.67;91.18;100327.84;5094396;56;1142710;-75
2024/03/09 15:09:24;;;;;;;45.37;23.13;;;;;;;10.50;91.64;100325.70;5075016;55;1142741;-76
2024/03/09 15:14:29;;;;;;;40.50;24.17;;;;;;;10.37;93.49;100320.56;5075752;56;1142786;-72
2024/03/09 15:19:35;;;;;;;47.33;27.27;;;;;;;10.34;94.09;100323.45;5099187;56;1142821;-78
2024/03/09 15:24:43;;;;;;;51.87;27.93;;;;;;;10.32;94.73;100317.92;5119386;56;1142795;-68
2024/03/09 15:29:47;;;;;;;41.10;23.77;;;;;;;10.37;94.43;100307.34;5070307;56;1142831;-75
2024/03/09 15:34:53;;;;;;;38.50;23.80;;;;;;;10.45;95.87;100285.09;5075281;55;1142559;-71
2024/03/09 15:40:00;;;;;;;51.53;24.10;;;;;;;10.50;94.35;100283.41;5035531;56;1142654;-76
2024/03/09 15:45:08;;;;;;;41.00;23.27;;;;;;;10.35;94.82;100280.67;5011896;57;1142725;-75
2024/03/09 15:50:16;;;;;;;39.33;22.60;;;;;;;10.21;95.89;100276.02;5084293;56;1143070;-78
2024/03/09 15:55:33;;;;;;;63.53;25.23;;;;;;;10.02;96.57;100267.83;5105673;55;1143492;-75
2024/03/09 16:00:29;;;;;;;63.40;30.75;;;;;;;9.89;97.77;100271.09;5111511;56;1142564;-75
2024/03/09 16:05:36;;;;;;;82.50;44.93;;;;;;;9.77;98.86;100276.02;5056766;56;1140748;-73
2024/03/09 16:10:41;;;;;;;48.50;28.25;;;;;;;9.71;99.90;100262.80;5099254;56;1140682;-72
2024/03/09 16:15:50;;;;;;;61.10;30.52;;;;;;;9.66;100.00;100258.34;5119433;56;1140915;-75
2024/03/09 16:20:56;;;;;;;60.83;33.83;;;;;;;9.56;100.00;100262.67;5091384;56;1140658;-72
2024/03/09 16:26:04;;;;;;;141.70;93.67;;;;;;;9.49;100.00;100268.05;5058356;56;1140704;-71
2024/03/09 16:31:10;;;;;;;84.50;52.67;;;;;;;9.43;100.00;100267.22;5083963;56;1142970;-71
2024/03/09 16:36:16;;;;;;;85.27;48.73;;;;;;;9.39;100.00;100260.48;5097891;56;1140795;-71
2024/03/09 16:41:23;;;;;;;52.37;29.20;;;;;;;9.32;100.00;100258.78;5099101;56;1140577;-72
2024/03/09 16:46:28;;;;;;;49.43;27.20;;;;;;;9.27;100.00;100260.95;5082804;56;1140674;-76
2024/03/09 16:51:34;;;;;;;59.33;31.57;;;;;;;9.21;100.00;100264.05;5034969;56;1140931;-76
2024/03/09 16:56:41;;;;;;;49.07;26.27;;;;;;;9.18;100.00;100267.75;5072632;56;1140725;-74
2024/03/09 17:01:49;;;;;;;52.03;29.57;;;;;;;9.15;100.00;100271.97;5098373;56;1140672;-73
2024/03/09 17:06:55;;;;;;;64.67;33.67;;;;;;;9.11;100.00;100275.78;5118704;56;1140470;-77
2024/03/09 17:12:01;;;;;;;71.53;33.17;;;;;;;9.04;100.00;100270.59;5098968;56;1140475;-79
2024/03/09 17:17:06;;;;;;;60.97;31.07;;;;;;;8.96;100.00;100264.22;5098067;56;1140672;-79
2024/03/09 17:22:16;;;;;;;51.90;28.30;;;;;;;8.97;100.00;100281.73;5118598;56;1140510;-77
2024/03/09 17:27:19;;;;;;;51.50;28.00;;;;;;;8.91;100.00;100277.74;5096854;56;1140811;-76
2024/03/09 17:32:24;;;;;;;55.93;28.43;;;;;;;8.85;100.00;100277.37;5070608;56;1140667;-80
2024/03/09 17:37:30;;;;;;;53.33;31.00;;;;;;;8.82;100.00;100271.84;5096235;56;1177978;-74
2024/03/09 17:42:35;;;;;;;55.15;30.62;;;;;;;8.76;100.00;100279.72;5117729;56;1141089;-72
2024/03/09 17:47:42;;;;;;;51.05;28.80;;;;;;;8.71;100.00;100283.16;5062806;56;1140723;-79
2024/03/09 17:52:49;;;;;;;60.40;29.67;;;;;;;8.66;100.00;100278.73;5070744;56;1140506;-78
2024/03/09 17:58:00;;;;;;;61.43;32.20;;;;;;;8.60;100.00;100269.94;5117817;56;1140651;-71
2024/03/09 18:03:07;;;;;;;65.80;31.07;;;;;;;8.55;100.00;100269.45;5097745;56;1140897;-75
2024/03/09 18:08:14;;;;;;;66.90;34.87;;;;;;;8.54;100.00;100272.20;5098095;56;1140512;-71
2024/03/09 18:13:20;;;;;;;61.27;33.17;;;;;;;8.50;100.00;100267.63;5119287;56;1140875;-76
2024/03/09 18:18:25;;;;;;;63.97;33.27;;;;;;;8.49;100.00;100262.45;5098716;56;1140539;-83
2024/03/09 18:23:32;;;;;;;53.00;30.34;;;;;;;8.45;100.00;100267.10;5048912;56;1140685;-74
2024/03/09 18:28:39;;;;;;;63.78;33.90;;;;;;;8.41;100.00;100254.63;5015954;57;1140829;-82
2024/03/09 18:33:48;;;;;;;59.47;32.33;;;;;;;8.36;100.00;100258.56;5015008;57;1140833;-81
2024/03/09 18:38:53;;;;;;;59.27;30.93;;;;;;;8.33;100.00;100254.83;5015577;57;1140497;-79
2024/03/09 18:43:59;;;;;;;65.60;33.80;;;;;;;8.27;100.00;100253.91;5035203;57;1140615;-71
2024/03/09 18:49:05;;;;;;;69.27;35.20;;;;;;;8.22;100.00;100250.30;5071635;56;1140613;-76
2024/03/09 18:54:11;;;;;;;71.60;34.73;;;;;;;8.18;100.00;100250.16;5099116;56;1140783;-77
2024/03/09 18:59:16;;;;;;;71.60;40.13;;;;;;;8.14;100.00;100248.68;5111716;56;1140879;-84
2024/03/09 19:04:23;;;;;;;71.60;36.83;;;;;;;8.07;100.00;100241.72;5078825;56;1141006;-81
2024/03/09 19:09:29;;;;;;;77.50;36.60;;;;;;;8.01;100.00;100234.23;4996254;57;1140934;-80
2024/03/09 19:14:36;;;;;;;68.60;33.70;;;;;;;7.95;100.00;100237.77;5015184;57;1140608;-78
2024/03/09 19:19:43;;;;;;;64.27;33.73;;;;;;;7.88;100.00;100230.80;5060618;56;1140894;-81
2024/03/09 19:24:48;;;;;;;63.53;32.43;;;;;;;7.84;100.00;100234.59;5079195;56;1140797;-78
2024/03/09 19:29:54;;;;;;;75.77;35.77;;;;;;;7.77;100.00;100233.36;5098986;56;1140641;-77
2024/03/09 19:35:00;;;;;;;77.17;36.83;;;;;;;7.73;100.00;100234.05;5079014;56;1140960;-75
2024/03/09 19:40:13;;;;;;;64.73;32.33;;;;;;;7.68;100.00;100248.47;5078820;56;1140581;-79
2024/03/09 19:45:19;;;;;;;74.03;35.33;;;;;;;7.62;100.00;100241.02;5098294;56;1140965;-75
2024/03/09 19:50:24;;;;;;;61.43;30.87;;;;;;;7.58;100.00;100236.44;5000373;56;1140620;-73
2024/03/09 19:55:30;;;;;;;74.37;37.55;;;;;;;7.57;100.00;100234.75;4996036;57;1140939;-77
2024/03/09 20:00:37;;;;;;;69.13;33.63;;;;;;;7.55;100.00;100226.11;5018974;57;1140558;-75
2024/03/09 20:05:43;;;;;;;72.82;35.75;;;;;;;7.53;100.00;100227.16;5036335;56;1140873;-79
2024/03/09 20:10:49;;;;;;;64.53;34.00;;;;;;;7.52;100.00;100226.31;5098607;56;1140628;-71
2024/03/09 20:15:57;;;;;;;64.93;32.17;;;;;;;7.45;100.00;100221.13;5118226;56;1140564;-82
2024/03/09 20:21:04;;;;;;;69.00;33.30;;;;;;;7.45;100.00;100221.13;5098597;56;1140752;-79
2024/03/09 20:26:11;;;;;;;69.03;32.90;;;;;;;7.43;100.00;100224.81;5098871;56;1140979;-68
2024/03/09 20:31:16;;;;;;;62.58;32.85;;;;;;;7.37;100.00;100208.97;5118640;56;1140789;-74
2024/03/09 20:36:22;;;;;;;56.27;29.73;;;;;;;7.32;100.00;100209.30;5098211;56;1140865;-77
2024/03/09 20:41:28;;;;;;;60.58;32.80;;;;;;;7.26;100.00;100212.34;5044180;56;1141022;-78
2024/03/09 20:46:36;;;;;;;70.86;33.08;;;;;;;7.22;100.00;100217.44;5052258;55;1140948;-74
2024/03/09 20:51:42;;;;;;;61.50;31.20;;;;;;;7.21;100.00;100217.55;5002966;57;1140788;-78
2024/03/09 20:56:48;;;;;;;86.47;36.88;;;;;;;7.19;100.00;100211.06;5010877;57;1140747;-73
2024/03/09 21:01:54;;;;;;;70.07;33.63;;;;;;;7.18;100.00;100200.17;5029759;57;1142864;-82
2024/03/09 21:06:59;;;;;;;66.00;32.20;;;;;;;7.19;100.00;100205.81;5031429;57;1140779;-71
2024/03/09 21:12:05;;;;;;;66.27;34.23;;;;;;;7.15;100.00;100202.20;5077446;57;1140701;-74
2024/03/09 21:17:11;;;;;;;62.17;32.63;;;;;;;7.12;100.00;100197.14;5076990;56;1140756;-80
2024/03/09 21:22:17;;;;;;;61.27;31.73;;;;;;;7.08;100.00;100199.13;5052027;56;1140404;-74
2024/03/09 21:27:22;;;;;;;72.13;33.40;;;;;;;7.02;100.00;100194.31;5052230;57;1140739;-75
2024/03/09 21:32:29;;;;;;;58.30;29.90;;;;;;;6.98;100.00;100194.14;5078874;56;1140598;-72
2024/03/09 21:37:37;;;;;;;64.63;30.10;;;;;;;7.00;100.00;100197.05;5118862;57;1142992;-76
2024/03/09 21:42:44;;;;;;;64.03;31.57;;;;;;;7.06;100.00;100192.66;5078976;56;1142755;-71
2024/03/09 21:47:50;;;;;;;62.80;29.13;;;;;;;7.10;100.00;100181.47;5044634;56;1140590;-73
2024/03/09 21:52:56;;;;;;;58.90;30.33;;;;;;;7.10;100.00;100182.78;5017311;57;1140554;-71
2024/03/09 21:58:04;;;;;;;58.33;30.20;;;;;;;7.09;100.00;100182.89;5070136;56;1140914;-76
2024/03/09 22:03:10;;;;;;;69.53;32.10;;;;;;;7.08;100.00;100181.20;5079495;57;1140859;-76
2024/03/09 22:08:15;;;;;;;54.80;28.85;;;;;;;7.10;100.00;100173.58;5098133;56;1140968;-76
2024/03/09 22:13:21;;;;;;;66.00;31.57;;;;;;;7.12;100.00;100170.38;5013424;56;1142802;-78
2024/03/09 22:18:28;;;;;;;64.80;32.03;;;;;;;7.16;100.00;100171.02;4991485;57;1143149;-76
2024/03/09 22:23:34;;;;;;;63.37;32.23;;;;;;;7.16;100.00;100178.43;4992393;57;1141115;-76
2024/03/09 22:28:40;;;;;;;66.83;33.00;;;;;;;7.16;100.00;100167.91;5027242;57;1140689;-76
2024/03/09 22:33:46;;;;;;;59.15;28.98;;;;;;;7.15;100.00;100164.06;5048567;56;1140838;-74
2024/03/09 22:38:51;;;;;;;71.37;34.43;;;;;;;7.17;100.00;100163.50;5066028;56;1143065;-75
2024/03/09 22:43:57;;;;;;;65.20;33.10;;;;;;;7.20;100.00;100161.47;5044401;57;1143012;-69
2024/03/09 22:49:04;;;;;;;65.40;34.63;;;;;;;7.19;100.00;100163.73;5031131;57;1140568;-81